Randolph, Ohio
Current Conditions -  °F | °C
As of 8:54 AM on Friday 19 Dec 2014 (Local Time) from KAKR Reporting Station
Overcast Overcast  
Wind Chill: -4°   Ceiling: 900
Heat Index: -1°   Visibility: 8mi
Dew Point: -3°   Wind: 6mph
Humidity: 88%   Direction: 320°NW
Pressure: 30.21"   Gusts: NA
Location:  41.03°N, 81.25°W
Report Text: KAKR 191354Z AUTO 32005KT 8SM BKN009 OVC015 M01/M03 A3021 RMK AO2 CIG 007V013 SLP242 T10111028 $
Loading
Personal Weather Stations






























Interactive Weather Map New forecast layout! Learn more

10-Day Weather Forecast

Advertisements
Track Severe Weather on mobile